»·PEaware :: N4736T L35-KBUR

N4736T :: L35-KBUR

FLIGHT INFORMATION

Flight Status: Arrived
Operator: Privately registered:
United States
More flights under this callsign
Pilot: Michael F. (9548)
Aircraft: BEECH AIRCRAFT SUPER KING AIR COMMUTER
(BE20)
More flights by this aircraft type
Origin: L35 Big Bear City
United States
Destination: KBUR Bob Hope-Burbank
United States
More flights between these airports :: More routes between these airports
Route: +L35 GAREY RAVON V264 ITSME V186 DARTS KBUR
File this flight plan on PilotEdge
Remarks:
Altitude:
(Current/Filed)
10,000ft
Speed:
(Current/Filed)
200kts
Departed: 05-Feb-19 10:16 PM
Arrived: 05-Feb-19 11:01 PM
Distance/Time
Traveled:
75nm/0:45
Distance/Time
To Go:
Arrived

Flight Plot

Page will automatically refresh every two minutes.

Flight plan parsing failed; only flown route is shown


Map Options




Map Legend


Flown Route
Filed Route
Departure Airport
Arrival Airport
Navaid (VOR, NDB)
Fix

Horizontal Profiles

Position Reports

Time Latitude Longitude Heading Altitude Ground
Speed
05-Feb-19 21:57 34.262998 -116.855648 196 6755ft 0kts
05-Feb-19 21:58 34.262998 -116.855648 196 6755ft 0kts
05-Feb-19 21:59 34.262998 -116.855648 196 6755ft 0kts
05-Feb-19 22:00 34.262998 -116.855648 196 6755ft 0kts
05-Feb-19 22:01 34.262998 -116.855648 196 6755ft 0kts
05-Feb-19 22:02 34.262998 -116.855648 196 6755ft 0kts
05-Feb-19 22:03 34.262998 -116.855648 196 6755ft 0kts
05-Feb-19 22:04 34.262998 -116.855648 196 6755ft 0kts
05-Feb-19 22:05 34.262998 -116.855648 196 6755ft 0kts
05-Feb-19 22:06 34.262998 -116.855648 196 6755ft 0kts
05-Feb-19 22:07 34.262998 -116.855648 196 6755ft 0kts
05-Feb-19 22:08 34.262998 -116.855648 196 6755ft 0kts
05-Feb-19 22:09 34.262998 -116.855648 196 6755ft 0kts
05-Feb-19 22:10 34.262958 -116.855666 204 6755ft 4kts
05-Feb-19 22:11 34.263230 -116.859782 272 6755ft 15kts
05-Feb-19 22:12 34.263253 -116.864119 265 6755ft 11kts
05-Feb-19 22:13 34.263314 -116.865554 325 6755ft 0kts
05-Feb-19 22:14 34.263315 -116.865554 326 6755ft 0kts
05-Feb-19 22:15 34.263485 -116.838350 82 7200ft 177kts
05-Feb-19 22:16 34.274399 -116.785327 61 9485ft 191kts
05-Feb-19 22:17 34.301687 -116.736564 39 9941ft 210kts
05-Feb-19 22:18 34.338870 -116.695487 33 10088ft 211kts
05-Feb-19 22:19 34.382004 -116.658885 25 10156ft 218kts
05-Feb-19 22:20 34.407916 -116.611959 120 10455ft 200kts
05-Feb-19 22:21 34.377318 -116.609666 241 10816ft 160kts
05-Feb-19 22:22 34.360611 -116.652426 244 11518ft 192kts
05-Feb-19 22:23 34.341741 -116.701712 244 12018ft 207kts
05-Feb-19 22:24 34.322109 -116.752855 244 12018ft 209kts
05-Feb-19 22:25 34.302598 -116.803580 244 12014ft 210kts
05-Feb-19 22:26 34.283105 -116.854022 244 12055ft 209kts
05-Feb-19 22:27 34.264117 -116.903074 244 12060ft 201kts
05-Feb-19 22:28 34.245685 -116.950894 244 12096ft 198kts
05-Feb-19 22:29 34.226979 -116.998338 239 12114ft 197kts
05-Feb-19 22:30 34.207645 -117.045328 244 12086ft 201kts
05-Feb-19 22:31 34.189082 -117.096342 244 11724ft 214kts
05-Feb-19 22:32 34.190921 -117.154357 259 11235ft 226kts
05-Feb-19 22:33 34.176374 -117.211197 245 10455ft 221kts
05-Feb-19 22:34 34.152890 -117.262084 239 9976ft 211kts
05-Feb-19 22:35 34.121040 -117.304355 227 9430ft 210kts
05-Feb-19 22:36 34.081912 -117.338933 234 8501ft 214kts
05-Feb-19 22:37 34.074481 -117.388549 257 8044ft 211kts
05-Feb-19 22:38 34.068063 -117.444709 268 8122ft 226kts
05-Feb-19 22:39 34.070569 -117.504460 259 7990ft 224kts
05-Feb-19 22:40 34.076271 -117.557057 277 8031ft 203kts
05-Feb-19 22:41 34.079905 -117.607406 268 8032ft 197kts
05-Feb-19 22:42 34.079983 -117.655832 266 8038ft 195kts
05-Feb-19 22:43 34.079074 -117.708217 266 8044ft 195kts
05-Feb-19 22:44 34.078006 -117.755134 266 8049ft 199kts
05-Feb-19 22:45 34.077125 -117.791393 266 8053ft 212kts
05-Feb-19 22:46 34.075756 -117.845616 266 7850ft 227kts
05-Feb-19 22:47 34.074029 -117.910208 268 7206ft 240kts
05-Feb-19 22:48 34.072385 -117.972494 269 6599ft 245kts
05-Feb-19 22:49 34.071268 -118.038860 270 6041ft 246kts
05-Feb-19 22:50 34.078822 -118.098836 309 6029ft 237kts
05-Feb-19 22:51 34.111557 -118.147252 308 6016ft 224kts
05-Feb-19 22:52 34.131700 -118.193076 292 6020ft 192kts
05-Feb-19 22:53 34.146417 -118.240862 291 5562ft 199kts
05-Feb-19 22:54 34.160847 -118.289615 277 4955ft 206kts
05-Feb-19 22:55 34.159393 -118.342415 268 4375ft 211kts
05-Feb-19 22:56 34.157208 -118.395763 273 4010ft 176kts
05-Feb-19 22:57 34.174246 -118.433526 322 2973ft 168kts
05-Feb-19 22:58 34.199131 -118.421405 86 1944ft 171kts
05-Feb-19 22:59 34.198106 -118.380456 90 1081ft 126kts
05-Feb-19 23:00 34.197479 -118.357906 196 781ft 4kts
05-Feb-19 23:01 34.196816 -118.359384 270 781ft 25kts

Navigation Log

Ident Type
Flight plan parsing failed, navigation log unavailable